sensor_id;sensor_type;location;lat;lon;timestamp;pressure;altitude;pressure_sealevel;temperature;humidity
65157;BME280;52745;49.794;18.258;2023-02-16T00:01:25;-15940.13;;;0.10;98.32
65157;BME280;52745;49.794;18.258;2023-02-16T00:03:53;-15938.75;;;0.05;98.67
65157;BME280;52745;49.794;18.258;2023-02-16T00:06:21;-15938.06;;;0.03;99.00
65157;BME280;52745;49.794;18.258;2023-02-16T00:08:51;-15937.09;;;-0.01;99.21
65157;BME280;52745;49.794;18.258;2023-02-16T00:11:19;-15936.56;;;-0.03;99.24
65157;BME280;52745;49.794;18.258;2023-02-16T00:14:08;-15935.47;;;-0.07;99.73
65157;BME280;52745;49.794;18.258;2023-02-16T00:16:35;-15935.72;;;-0.06;99.78
65157;BME280;52745;49.794;18.258;2023-02-16T00:19:23;-15936.13;;;-0.05;99.30
65157;BME280;52745;49.794;18.258;2023-02-16T00:21:52;-15936.84;;;-0.02;99.83
65157;BME280;52745;49.794;18.258;2023-02-16T00:24:19;-15936.28;;;-0.04;99.44
65157;BME280;52745;49.794;18.258;2023-02-16T00:26:47;-15936.13;;;-0.05;99.53
65157;BME280;52745;49.794;18.258;2023-02-16T00:31:49;-15935.59;;;-0.07;99.44
65157;BME280;52745;49.794;18.258;2023-02-16T00:34:37;-15936.41;;;-0.04;99.83
65157;BME280;52745;49.794;18.258;2023-02-16T00:37:07;-15937.09;;;-0.01;99.90
65157;BME280;52745;49.794;18.258;2023-02-16T00:39:36;-15937.78;;;0.02;99.75
65157;BME280;52745;49.794;18.258;2023-02-16T00:42:26;-15937.94;;;0.02;99.76
65157;BME280;52745;49.794;18.258;2023-02-16T00:44:53;-15939.84;;;0.09;99.35
65157;BME280;52745;49.794;18.258;2023-02-16T00:49:51;-15940.94;;;0.13;99.14
65157;BME280;52745;49.794;18.258;2023-02-16T00:52:38;-15941.75;;;0.16;99.07
65157;BME280;52745;49.794;18.258;2023-02-16T00:55:10;-15942.31;;;0.18;98.90
65157;BME280;52745;49.794;18.258;2023-02-16T00:57:41;-15942.72;;;0.20;98.78
65157;BME280;52745;49.794;18.258;2023-02-16T01:02:39;-15943.53;;;0.23;98.31
65157;BME280;52745;49.794;18.258;2023-02-16T01:05:06;-15945.06;;;0.29;97.79
65157;BME280;52745;49.794;18.258;2023-02-16T01:07:33;-15945.06;;;0.29;97.86
65157;BME280;52745;49.794;18.258;2023-02-16T01:10:19;-15945.59;;;0.31;97.66
65157;BME280;52745;49.794;18.258;2023-02-16T01:13:04;-15945.31;;;0.30;97.84
65157;BME280;52745;49.794;18.258;2023-02-16T01:15:33;-15945.75;;;0.31;97.52
65157;BME280;52745;49.794;18.258;2023-02-16T01:18:00;-15945.59;;;0.31;97.77
65157;BME280;52745;49.794;18.258;2023-02-16T01:20:27;-15946.00;;;0.32;97.40
65157;BME280;52745;49.794;18.258;2023-02-16T01:22:54;-15944.50;;;0.27;97.73
65157;BME280;52745;49.794;18.258;2023-02-16T01:25:21;-15943.81;;;0.24;97.81
65157;BME280;52745;49.794;18.258;2023-02-16T01:27:48;-15945.06;;;0.29;97.74
65157;BME280;52745;49.794;18.258;2023-02-16T01:30:21;-15943.41;;;0.23;98.04
65157;BME280;52745;49.794;18.258;2023-02-16T01:32:48;-15943.41;;;0.23;98.22
65157;BME280;52745;49.794;18.258;2023-02-16T01:35:28;-15942.88;;;0.20;98.22
65157;BME280;52745;49.794;18.258;2023-02-16T01:37:58;-15942.88;;;0.20;98.39
65157;BME280;52745;49.794;18.258;2023-02-16T01:45:53;-15947.09;;;0.36;97.88
65157;BME280;52745;49.794;18.258;2023-02-16T01:48:25;-15946.44;;;0.34;97.71
65157;BME280;52745;49.794;18.258;2023-02-16T01:56:16;-15947.66;;;0.38;97.68
65157;BME280;52745;49.794;18.258;2023-02-16T01:58:48;-15947.25;;;0.37;97.39
65157;BME280;52745;49.794;18.258;2023-02-16T02:07:14;-15948.06;;;0.40;96.76
65157;BME280;52745;49.794;18.258;2023-02-16T02:09:49;-15948.88;;;0.43;97.15
65157;BME280;52745;49.794;18.258;2023-02-16T02:15:08;-15948.47;;;0.41;96.94
65157;BME280;52745;49.794;18.258;2023-02-16T02:17:36;-15949.56;;;0.46;96.85
65157;BME280;52745;49.794;18.258;2023-02-16T02:28:41;-15950.13;;;0.48;96.48
65157;BME280;52745;49.794;18.258;2023-02-16T02:36:47;-15947.53;;;0.38;96.62
65157;BME280;52745;49.794;18.258;2023-02-16T02:42:22;-15947.53;;;0.38;96.90
65157;BME280;52745;49.794;18.258;2023-02-16T02:45:04;-15948.88;;;0.43;96.41
65157;BME280;52745;49.794;18.258;2023-02-16T02:47:39;-15945.88;;;0.32;97.21
65157;BME280;52745;49.794;18.258;2023-02-16T02:50:46;-15946.69;;;0.35;97.47
65157;BME280;52745;49.794;18.258;2023-02-16T02:53:41;-15945.06;;;0.29;97.81
65157;BME280;52745;49.794;18.258;2023-02-16T02:56:11;-15943.53;;;0.23;97.92
65157;BME280;52745;49.794;18.258;2023-02-16T02:59:03;-15942.72;;;0.20;98.37
65157;BME280;52745;49.794;18.258;2023-02-16T03:01:55;-15943.13;;;0.22;98.82
65157;BME280;52745;49.794;18.258;2023-02-16T03:04:27;-15945.06;;;0.29;98.64
65157;BME280;52745;49.794;18.258;2023-02-16T03:06:57;-15944.09;;;0.25;98.40
65157;BME280;52745;49.794;18.258;2023-02-16T03:09:26;-15947.25;;;0.37;98.34
65157;BME280;52745;49.794;18.258;2023-02-16T03:11:55;-15947.38;;;0.37;97.99
65157;BME280;52745;49.794;18.258;2023-02-16T03:14:46;-15947.78;;;0.39;98.32
65157;BME280;52745;49.794;18.258;2023-02-16T03:17:17;-15945.59;;;0.31;98.98
65157;BME280;52745;49.794;18.258;2023-02-16T03:20:07;-15947.53;;;0.38;98.81
65157;BME280;52745;49.794;18.258;2023-02-16T03:22:55;-15945.88;;;0.32;98.89
65157;BME280;52745;49.794;18.258;2023-02-16T03:25:41;-15948.47;;;0.41;98.76
65157;BME280;52745;49.794;18.258;2023-02-16T03:28:28;-15948.22;;;0.40;98.81
65157;BME280;52745;49.794;18.258;2023-02-16T03:31:33;-15947.78;;;0.39;99.01
65157;BME280;52745;49.794;18.258;2023-02-16T03:34:01;-15945.47;;;0.30;99.58
65157;BME280;52745;49.794;18.258;2023-02-16T03:36:30;-15946.56;;;0.34;99.50
65157;BME280;52745;49.794;18.258;2023-02-16T03:38:59;-15947.66;;;0.38;99.56
65157;BME280;52745;49.794;18.258;2023-02-16T03:41:31;-15946.69;;;0.35;99.88
65157;BME280;52745;49.794;18.258;2023-02-16T03:43:59;-15948.34;;;0.41;99.60
65157;BME280;52745;49.794;18.258;2023-02-16T03:46:25;-15951.09;;;0.51;99.43
65157;BME280;52745;49.794;18.258;2023-02-16T03:48:52;-15949.31;;;0.45;99.37
65157;BME280;52745;49.794;18.258;2023-02-16T03:51:19;-15951.09;;;0.51;99.36
65157;BME280;52745;49.794;18.258;2023-02-16T03:53:47;-15949.03;;;0.44;99.38
65157;BME280;52745;49.794;18.258;2023-02-16T03:56:13;-15950.00;;;0.47;99.58
65157;BME280;52745;49.794;18.258;2023-02-16T03:58:40;-15949.16;;;0.44;99.58
65157;BME280;52745;49.794;18.258;2023-02-16T04:01:07;-15950.00;;;0.47;99.75
65157;BME280;52745;49.794;18.258;2023-02-16T04:03:34;-15951.09;;;0.51;99.79
65157;BME280;52745;49.794;18.258;2023-02-16T04:06:01;-15951.34;;;0.52;99.93
65157;BME280;52745;49.794;18.258;2023-02-16T04:08:28;-15951.91;;;0.54;99.58
65157;BME280;52745;49.794;18.258;2023-02-16T04:10:54;-15951.22;;;0.52;99.72
65157;BME280;52745;49.794;18.258;2023-02-16T04:13:23;-15951.91;;;0.54;99.76
65157;BME280;52745;49.794;18.258;2023-02-16T04:15:50;-15951.91;;;0.54;99.98
65157;BME280;52745;49.794;18.258;2023-02-16T04:18:17;-15952.59;;;0.57;99.66
65157;BME280;52745;49.794;18.258;2023-02-16T04:20:43;-15951.63;;;0.53;99.42
65157;BME280;52745;49.794;18.258;2023-02-16T04:23:10;-15951.63;;;0.53;99.72
65157;BME280;52745;49.794;18.258;2023-02-16T04:25:37;-15953.81;;;0.61;99.62
65157;BME280;52745;49.794;18.258;2023-02-16T04:28:04;-15953.81;;;0.61;99.16
65157;BME280;52745;49.794;18.258;2023-02-16T04:30:31;-15954.22;;;0.63;99.39
65157;BME280;52745;49.794;18.258;2023-02-16T04:32:57;-15955.19;;;0.67;99.29
65157;BME280;52745;49.794;18.258;2023-02-16T04:35:26;-15957.38;;;0.75;99.38
65157;BME280;52745;49.794;18.258;2023-02-16T04:37:53;-15954.91;;;0.66;99.30
65157;BME280;52745;49.794;18.258;2023-02-16T04:40:20;-15954.09;;;0.63;99.65
65157;BME280;52745;49.794;18.258;2023-02-16T04:42:47;-15955.88;;;0.69;99.68
65157;BME280;52745;49.794;18.258;2023-02-16T04:45:13;-15954.66;;;0.65;100.00
65157;BME280;52745;49.794;18.258;2023-02-16T04:47:40;-15955.34;;;0.67;99.65
65157;BME280;52745;49.794;18.258;2023-02-16T04:50:08;-15956.00;;;0.70;99.56
65157;BME280;52745;49.794;18.258;2023-02-16T04:52:35;-15955.75;;;0.69;99.96
65157;BME280;52745;49.794;18.258;2023-02-16T04:55:04;-15956.16;;;0.70;99.83
65157;BME280;52745;49.794;18.258;2023-02-16T04:57:31;-15957.53;;;0.75;99.85
65157;BME280;52745;49.794;18.258;2023-02-16T04:59:58;-15957.94;;;0.77;99.71
65157;BME280;52745;49.794;18.258;2023-02-16T05:02:25;-15959.56;;;0.83;99.61
65157;BME280;52745;49.794;18.258;2023-02-16T05:04:51;-15958.22;;;0.78;99.68
65157;BME280;52745;49.794;18.258;2023-02-16T05:07:18;-15959.31;;;0.82;99.17
65157;BME280;52745;49.794;18.258;2023-02-16T05:09:45;-15956.97;;;0.73;99.83
65157;BME280;52745;49.794;18.258;2023-02-16T05:12:12;-15961.34;;;0.90;100.00
65157;BME280;52745;49.794;18.258;2023-02-16T05:14:57;-15967.13;;;1.11;100.00
65157;BME280;52745;49.794;18.258;2023-02-16T05:17:25;-15965.06;;;1.03;99.56
65157;BME280;52745;49.794;18.258;2023-02-16T05:19:57;-15962.31;;;0.93;99.22
65157;BME280;52745;49.794;18.258;2023-02-16T05:22:27;-15959.03;;;0.81;99.91
65157;BME280;52745;49.794;18.258;2023-02-16T05:24:54;-15960.41;;;0.86;99.91
65157;BME280;52745;49.794;18.258;2023-02-16T05:27:23;-15963.00;;;0.96;99.22
65157;BME280;52745;49.794;18.258;2023-02-16T05:29:52;-15965.88;;;1.07;99.21
65157;BME280;52745;49.794;18.258;2023-02-16T05:32:19;-15969.56;;;1.20;98.43
65157;BME280;52745;49.794;18.258;2023-02-16T05:34:46;-15968.34;;;1.16;97.85
65157;BME280;52745;49.794;18.258;2023-02-16T05:37:15;-15966.28;;;1.08;97.99
65157;BME280;52745;49.794;18.258;2023-02-16T05:39:42;-15966.56;;;1.09;98.31
65157;BME280;52745;49.794;18.258;2023-02-16T05:42:09;-15963.13;;;0.96;98.64
65157;BME280;52745;49.794;18.258;2023-02-16T05:44:36;-15964.66;;;1.02;98.77
65157;BME280;52745;49.794;18.258;2023-02-16T05:47:03;-15965.06;;;1.03;98.64
65157;BME280;52745;49.794;18.258;2023-02-16T05:49:30;-15967.53;;;1.13;98.32
65157;BME280;52745;49.794;18.258;2023-02-16T05:51:57;-15966.97;;;1.11;98.24
65157;BME280;52745;49.794;18.258;2023-02-16T05:54:24;-15966.44;;;1.09;98.44
65157;BME280;52745;49.794;18.258;2023-02-16T05:56:52;-15968.63;;;1.17;98.13
65157;BME280;52745;49.794;18.258;2023-02-16T05:59:18;-15964.78;;;1.02;98.65
65157;BME280;52745;49.794;18.258;2023-02-16T06:01:45;-15965.88;;;1.07;98.93
65157;BME280;52745;49.794;18.258;2023-02-16T06:04:12;-15966.97;;;1.11;98.86
65157;BME280;52745;49.794;18.258;2023-02-16T06:06:40;-15968.47;;;1.16;98.43
65157;BME280;52745;49.794;18.258;2023-02-16T06:09:07;-15967.53;;;1.13;98.59
65157;BME280;52745;49.794;18.258;2023-02-16T06:11:34;-15969.16;;;1.19;98.41
65157;BME280;52745;49.794;18.258;2023-02-16T06:14:03;-15967.53;;;1.13;98.78
65157;BME280;52745;49.794;18.258;2023-02-16T06:16:31;-15967.25;;;1.12;98.75
65157;BME280;52745;49.794;18.258;2023-02-16T06:18:59;-15968.34;;;1.16;98.74
65157;BME280;52745;49.794;18.258;2023-02-16T06:21:27;-15966.56;;;1.09;99.05
65157;BME280;52745;49.794;18.258;2023-02-16T06:23:55;-15965.06;;;1.03;99.60
65157;BME280;52745;49.794;18.258;2023-02-16T06:26:23;-15963.56;;;0.98;99.89
65157;BME280;52745;49.794;18.258;2023-02-16T06:28:50;-15964.38;;;1.01;100.00
65157;BME280;52745;49.794;18.258;2023-02-16T06:31:17;-15968.06;;;1.15;99.47
65157;BME280;52745;49.794;18.258;2023-02-16T06:33:44;-15968.06;;;1.15;99.75
65157;BME280;52745;49.794;18.258;2023-02-16T06:36:11;-15966.16;;;1.08;99.48
65157;BME280;52745;49.794;18.258;2023-02-16T06:38:37;-15967.25;;;1.12;99.61
65157;BME280;52745;49.794;18.258;2023-02-16T06:41:05;-15967.94;;;1.14;99.55
65157;BME280;52745;49.794;18.258;2023-02-16T06:43:32;-15970.00;;;1.22;99.09
65157;BME280;52745;49.794;18.258;2023-02-16T06:45:59;-15969.03;;;1.18;99.36
65157;BME280;52745;49.794;18.258;2023-02-16T06:48:26;-15968.63;;;1.17;99.79
65157;BME280;52745;49.794;18.258;2023-02-16T06:50:53;-15970.25;;;1.23;99.46
65157;BME280;52745;49.794;18.258;2023-02-16T06:53:19;-15971.78;;;1.29;99.16
65157;BME280;52745;49.794;18.258;2023-02-16T06:55:49;-15969.72;;;1.21;99.19
65157;BME280;52745;49.794;18.258;2023-02-16T06:58:15;-15972.47;;;1.31;99.16
65157;BME280;52745;49.794;18.258;2023-02-16T07:00:42;-15971.22;;;1.27;98.95
65157;BME280;52745;49.794;18.258;2023-02-16T07:03:09;-15971.63;;;1.28;98.80
65157;BME280;52745;49.794;18.258;2023-02-16T07:05:36;-15970.25;;;1.23;99.19
65157;BME280;52745;49.794;18.258;2023-02-16T07:08:03;-15971.34;;;1.27;99.07
65157;BME280;52745;49.794;18.258;2023-02-16T07:10:30;-15973.56;;;1.35;99.07
65157;BME280;52745;49.794;18.258;2023-02-16T07:12:57;-15971.63;;;1.28;98.95
65157;BME280;52745;49.794;18.258;2023-02-16T07:15:24;-15974.09;;;1.37;98.76
65157;BME280;52745;49.794;18.258;2023-02-16T07:17:50;-15976.69;;;1.47;98.52
65157;BME280;52745;49.794;18.258;2023-02-16T07:20:17;-15977.38;;;1.50;98.23
65157;BME280;52745;49.794;18.258;2023-02-16T07:22:44;-15980.13;;;1.60;97.81
65157;BME280;52745;49.794;18.258;2023-02-16T07:25:11;-15978.06;;;1.52;97.76
65157;BME280;52745;49.794;18.258;2023-02-16T07:27:37;-15980.13;;;1.60;98.02
65157;BME280;52745;49.794;18.258;2023-02-16T07:30:05;-15982.31;;;1.68;97.27
65157;BME280;52745;49.794;18.258;2023-02-16T07:32:31;-15986.00;;;1.82;96.36
65157;BME280;52745;49.794;18.258;2023-02-16T07:34:58;-15988.47;;;1.91;95.60
65157;BME280;52745;49.794;18.258;2023-02-16T07:37:25;-15986.28;;;1.83;96.26
65157;BME280;52745;49.794;18.258;2023-02-16T07:39:52;-15990.25;;;1.98;95.44
65157;BME280;52745;49.794;18.258;2023-02-16T07:42:19;-15990.41;;;1.98;94.95
65157;BME280;52745;49.794;18.258;2023-02-16T07:44:47;-15993.53;;;2.10;94.68
65157;BME280;52745;49.794;18.258;2023-02-16T07:47:14;-15992.19;;;2.05;94.66
65157;BME280;52745;49.794;18.258;2023-02-16T07:49:40;-15998.75;;;2.30;93.99
65157;BME280;52745;49.794;18.258;2023-02-16T07:52:07;-16003.00;;;2.45;92.91
65157;BME280;52745;49.794;18.258;2023-02-16T07:54:34;-16005.03;;;2.53;92.49
65157;BME280;52745;49.794;18.258;2023-02-16T07:57:01;-16009.16;;;2.68;91.64
65157;BME280;52745;49.794;18.258;2023-02-16T07:59:28;-16004.50;;;2.51;92.17
65157;BME280;52745;49.794;18.258;2023-02-16T08:01:54;-16004.91;;;2.53;91.90
65157;BME280;52745;49.794;18.258;2023-02-16T08:04:21;-16005.31;;;2.54;91.59
65157;BME280;52745;49.794;18.258;2023-02-16T08:06:48;-16003.13;;;2.46;91.81
65157;BME280;52745;49.794;18.258;2023-02-16T08:09:16;-16005.59;;;2.55;91.97
65157;BME280;52745;49.794;18.258;2023-02-16T08:11:43;-16006.00;;;2.57;90.72
65157;BME280;52745;49.794;18.258;2023-02-16T08:14:10;-16010.38;;;2.73;90.70
65157;BME280;52745;49.794;18.258;2023-02-16T08:16:37;-16017.63;;;3.00;89.16
65157;BME280;52745;49.794;18.258;2023-02-16T08:19:04;-16018.59;;;3.04;89.19
65157;BME280;52745;49.794;18.258;2023-02-16T08:21:32;-16020.66;;;3.11;88.63
65157;BME280;52745;49.794;18.258;2023-02-16T08:24:02;-16025.72;;;3.30;87.47
65157;BME280;52745;49.794;18.258;2023-02-16T08:26:38;-16018.88;;;3.05;88.06
65157;BME280;52745;49.794;18.258;2023-02-16T08:29:07;-16019.00;;;3.05;88.63
65157;BME280;52745;49.794;18.258;2023-02-16T08:31:41;-16019.16;;;3.06;88.63
65157;BME280;52745;49.794;18.258;2023-02-16T08:34:08;-16026.66;;;3.34;87.27
65157;BME280;52745;49.794;18.258;2023-02-16T08:36:36;-16036.66;;;3.71;85.58
65157;BME280;52745;49.794;18.258;2023-02-16T08:39:08;-16045.84;;;4.06;83.71
65157;BME280;52745;49.794;18.258;2023-02-16T08:41:36;-16054.19;;;4.37;81.71
65157;BME280;52745;49.794;18.258;2023-02-16T08:44:05;-16064.28;;;4.75;80.67
65157;BME280;52745;49.794;18.258;2023-02-16T08:46:33;-16066.88;;;4.85;79.08
65157;BME280;52745;49.794;18.258;2023-02-16T08:49:01;-16059.50;;;4.57;79.04
65157;BME280;52745;49.794;18.258;2023-02-16T08:51:31;-16071.28;;;5.01;78.73
65157;BME280;52745;49.794;18.258;2023-02-16T08:54:00;-16087.81;;;5.63;75.79
65157;BME280;52745;49.794;18.258;2023-02-16T08:56:28;-16106.00;;;6.31;73.47
65157;BME280;52745;49.794;18.258;2023-02-16T08:58:56;-16124.31;;;7.00;70.77
65157;BME280;52745;49.794;18.258;2023-02-16T09:01:22;-16122.38;;;6.93;69.56
65157;BME280;52745;49.794;18.258;2023-02-16T09:03:50;-16093.56;;;5.85;72.64
65157;BME280;52745;49.794;18.258;2023-02-16T09:06:18;-16093.00;;;5.83;73.62
65157;BME280;52745;49.794;18.258;2023-02-16T09:08:56;-16102.84;;;6.19;72.19
65157;BME280;52745;49.794;18.258;2023-02-16T09:11:23;-16096.97;;;5.97;72.93
65157;BME280;52745;49.794;18.258;2023-02-16T09:13:50;-16105.84;;;6.31;71.75
65157;BME280;52745;49.794;18.258;2023-02-16T09:16:19;-16119.13;;;6.80;70.01
65157;BME280;52745;49.794;18.258;2023-02-16T09:18:48;-16131.97;;;7.29;67.92
65157;BME280;52745;49.794;18.258;2023-02-16T09:21:21;-16135.78;;;7.43;66.91
65157;BME280;52745;49.794;18.258;2023-02-16T09:23:49;-16128.69;;;7.16;67.76
65157;BME280;52745;49.794;18.258;2023-02-16T09:26:20;-16128.00;;;7.14;68.07
65157;BME280;52745;49.794;18.258;2023-02-16T09:28:48;-16139.06;;;7.55;65.77
65157;BME280;52745;49.794;18.258;2023-02-16T09:31:21;-16146.00;;;7.81;64.75
65157;BME280;52745;49.794;18.258;2023-02-16T09:33:55;-16145.75;;;7.80;65.96
65157;BME280;52745;49.794;18.258;2023-02-16T09:36:22;-16140.00;;;7.59;65.65
65157;BME280;52745;49.794;18.258;2023-02-16T09:38:49;-16155.16;;;8.16;64.45
65157;BME280;52745;49.794;18.258;2023-02-16T09:46:37;-16152.16;;;8.04;64.44
65157;BME280;52745;49.794;18.258;2023-02-16T09:49:15;-16167.19;;;8.61;62.22
65157;BME280;52745;49.794;18.258;2023-02-16T09:51:49;-16175.66;;;8.93;60.69
65157;BME280;52745;49.794;18.258;2023-02-16T09:54:44;-16161.16;;;8.38;62.79
65157;BME280;52745;49.794;18.258;2023-02-16T10:08:47;-16168.56;;;8.66;61.31
65157;BME280;52745;49.794;18.258;2023-02-16T10:11:24;-16183.84;;;9.23;59.82
65157;BME280;52745;49.794;18.258;2023-02-16T10:19:45;-16224.22;;;10.75;56.12
65157;BME280;52745;49.794;18.258;2023-02-16T10:22:25;-16236.34;;;11.21;53.00
65157;BME280;52745;49.794;18.258;2023-02-16T10:27:21;-16224.63;;;10.76;53.70
65157;BME280;52745;49.794;18.258;2023-02-16T10:29:48;-16207.56;;;10.12;55.40
65157;BME280;52745;49.794;18.258;2023-02-16T10:32:24;-16208.25;;;10.15;56.94
65157;BME280;52745;49.794;18.258;2023-02-16T10:35:13;-16233.19;;;11.09;53.74
65157;BME280;52745;49.794;18.258;2023-02-16T10:40:35;-16183.84;;;9.23;58.55
65157;BME280;52745;49.794;18.258;2023-02-16T10:43:22;-16181.38;;;9.14;59.05
65157;BME280;52745;49.794;18.258;2023-02-16T10:45:53;-16196.25;;;9.70;58.12
65157;BME280;52745;49.794;18.258;2023-02-16T10:48:21;-16208.66;;;10.17;57.31
65157;BME280;52745;49.794;18.258;2023-02-16T10:51:08;-16216.03;;;10.44;55.58
65157;BME280;52745;49.794;18.258;2023-02-16T10:56:22;-16189.56;;;9.45;57.83
65157;BME280;52745;49.794;18.258;2023-02-16T10:58:53;-16184.66;;;9.26;58.71
65157;BME280;52745;49.794;18.258;2023-02-16T11:01:33;-16198.84;;;9.80;57.80
65157;BME280;52745;49.794;18.258;2023-02-16T11:04:02;-16211.25;;;10.26;56.21
65157;BME280;52745;49.794;18.258;2023-02-16T11:06:29;-16202.78;;;9.94;56.66
65157;BME280;52745;49.794;18.258;2023-02-16T11:09:00;-16190.09;;;9.47;57.63
65157;BME280;52745;49.794;18.258;2023-02-16T11:11:38;-16194.88;;;9.65;58.32
65157;BME280;52745;49.794;18.258;2023-02-16T11:14:19;-16190.09;;;9.47;58.02
65157;BME280;52745;49.794;18.258;2023-02-16T11:16:47;-16203.19;;;9.96;57.59
65157;BME280;52745;49.794;18.258;2023-02-16T11:19:21;-16185.06;;;9.28;58.54
65157;BME280;52745;49.794;18.258;2023-02-16T11:21:53;-16169.91;;;8.71;60.05
65157;BME280;52745;49.794;18.258;2023-02-16T11:24:30;-16172.91;;;8.82;60.39
65157;BME280;52745;49.794;18.258;2023-02-16T11:29:39;-16153.25;;;8.08;62.28
65157;BME280;52745;49.794;18.258;2023-02-16T11:32:08;-16155.16;;;8.16;62.29
65157;BME280;52745;49.794;18.258;2023-02-16T11:37:13;-16154.47;;;8.13;62.73
65157;BME280;52745;49.794;18.258;2023-02-16T11:39:48;-16159.81;;;8.33;61.84
65157;BME280;52745;49.794;18.258;2023-02-16T11:42:27;-16166.09;;;8.57;62.02
65157;BME280;52745;49.794;18.258;2023-02-16T11:44:56;-16174.97;;;8.90;61.62
65157;BME280;52745;49.794;18.258;2023-02-16T11:47:28;-16164.19;;;8.49;61.45
65157;BME280;52745;49.794;18.258;2023-02-16T11:52:39;-16160.75;;;8.37;61.17
65157;BME280;52745;49.794;18.258;2023-02-16T11:55:27;-16155.31;;;8.16;61.63
65157;BME280;52745;49.794;18.258;2023-02-16T11:58:26;-16156.25;;;8.20;62.18
65157;BME280;52745;49.794;18.258;2023-02-16T12:12:02;-16147.78;;;7.88;63.95
65157;BME280;52745;49.794;18.258;2023-02-16T12:14:41;-16145.88;;;7.81;64.11
65157;BME280;52745;49.794;18.258;2023-02-16T12:22:45;-16157.50;;;8.24;62.65
65157;BME280;52745;49.794;18.258;2023-02-16T12:27:53;-16161.72;;;8.40;62.59
65157;BME280;52745;49.794;18.258;2023-02-16T12:30:35;-16164.19;;;8.49;62.24
65157;BME280;52745;49.794;18.258;2023-02-16T12:43:37;-16171.41;;;8.77;62.19
65157;BME280;52745;49.794;18.258;2023-02-16T12:46:37;-16163.38;;;8.46;61.67
65157;BME280;52745;49.794;18.258;2023-02-16T12:51:49;-16160.22;;;8.35;62.99
65157;BME280;52745;49.794;18.258;2023-02-16T12:54:37;-16150.53;;;7.98;63.74
65157;BME280;52745;49.794;18.258;2023-02-16T12:57:14;-16145.34;;;7.79;64.13
65157;BME280;52745;49.794;18.258;2023-02-16T13:00:04;-16132.78;;;7.32;66.29
65157;BME280;52745;49.794;18.258;2023-02-16T13:02:54;-16128.53;;;7.16;66.88
65157;BME280;52745;49.794;18.258;2023-02-16T13:05:26;-16129.50;;;7.19;67.05
65157;BME280;52745;49.794;18.258;2023-02-16T13:08:15;-16119.94;;;6.83;68.05
65157;BME280;52745;49.794;18.258;2023-02-16T13:11:01;-16121.31;;;6.89;68.36
65157;BME280;52745;49.794;18.258;2023-02-16T13:13:32;-16116.94;;;6.72;69.58
65157;BME280;52745;49.794;18.258;2023-02-16T13:18:42;-16137.97;;;7.51;66.80
65157;BME280;52745;49.794;18.258;2023-02-16T13:30:40;-16122.66;;;6.94;68.60
65157;BME280;52745;49.794;18.258;2023-02-16T13:38:16;-16107.22;;;6.36;70.07
65157;BME280;52745;49.794;18.258;2023-02-16T13:43:33;-16105.31;;;6.29;70.91
65157;BME280;52745;49.794;18.258;2023-02-16T13:46:05;-16106.41;;;6.33;70.42
65157;BME280;52745;49.794;18.258;2023-02-16T13:48:38;-16096.97;;;5.97;71.25
65157;BME280;52745;49.794;18.258;2023-02-16T13:51:15;-16097.13;;;5.98;72.01
65157;BME280;52745;49.794;18.258;2023-02-16T13:53:51;-16095.06;;;5.90;71.95
65157;BME280;52745;49.794;18.258;2023-02-16T14:01:49;-16085.06;;;5.53;73.39
65157;BME280;52745;49.794;18.258;2023-02-16T14:09:29;-16077.28;;;5.24;74.30
65157;BME280;52745;49.794;18.258;2023-02-16T14:22:57;-16066.47;;;4.83;76.54
65157;BME280;52745;49.794;18.258;2023-02-16T14:25:36;-16063.47;;;4.72;77.24
65157;BME280;52745;49.794;18.258;2023-02-16T14:31:23;-16062.09;;;4.67;77.26
65157;BME280;52745;49.794;18.258;2023-02-16T14:34:00;-16061.41;;;4.64;77.71
65157;BME280;52745;49.794;18.258;2023-02-16T14:36:28;-16062.09;;;4.67;76.53
65157;BME280;52745;49.794;18.258;2023-02-16T14:38:57;-16058.97;;;4.55;76.44
65157;BME280;52745;49.794;18.258;2023-02-16T14:41:33;-16062.50;;;4.68;76.56
65157;BME280;52745;49.794;18.258;2023-02-16T14:55:36;-16048.56;;;4.16;77.26
65157;BME280;52745;49.794;18.258;2023-02-16T15:01:15;-16047.19;;;4.11;77.12
65157;BME280;52745;49.794;18.258;2023-02-16T15:03:51;-16046.38;;;4.08;77.12
65157;BME280;52745;49.794;18.258;2023-02-16T15:06:33;-16045.56;;;4.05;77.40
65157;BME280;52745;49.794;18.258;2023-02-16T15:09:05;-16045.41;;;4.04;77.25
65157;BME280;52745;49.794;18.258;2023-02-16T15:11:53;-16046.66;;;4.09;76.97
65157;BME280;52745;49.794;18.258;2023-02-16T15:14:50;-16047.47;;;4.12;76.23
65157;BME280;52745;49.794;18.258;2023-02-16T15:17:36;-16049.53;;;4.20;76.04
65157;BME280;52745;49.794;18.258;2023-02-16T15:20:34;-16048.84;;;4.17;76.74
65157;BME280;52745;49.794;18.258;2023-02-16T15:25:59;-16044.06;;;3.99;78.69
65157;BME280;52745;49.794;18.258;2023-02-16T15:28:33;-16040.91;;;3.87;79.55
65157;BME280;52745;49.794;18.258;2023-02-16T15:31:04;-16037.63;;;3.75;81.06
65157;BME280;52745;49.794;18.258;2023-02-16T15:33:34;-16035.16;;;3.66;81.28
65157;BME280;52745;49.794;18.258;2023-02-16T15:36:11;-16032.16;;;3.55;81.33
65157;BME280;52745;49.794;18.258;2023-02-16T15:39:03;-16031.19;;;3.51;81.40
65157;BME280;52745;49.794;18.258;2023-02-16T15:41:34;-16030.50;;;3.48;82.32
65157;BME280;52745;49.794;18.258;2023-02-16T15:44:27;-16029.81;;;3.46;82.60
65157;BME280;52745;49.794;18.258;2023-02-16T15:46:50;-16026.25;;;3.33;84.00
65157;BME280;52745;49.794;18.258;2023-02-16T15:49:26;-16024.34;;;3.25;84.26
65157;BME280;52745;49.794;18.258;2023-02-16T15:51:56;-16021.88;;;3.16;85.12
65157;BME280;52745;49.794;18.258;2023-02-16T15:54:27;-16020.09;;;3.09;85.59
65157;BME280;52745;49.794;18.258;2023-02-16T15:59:50;-16014.91;;;2.90;86.73
65157;BME280;52745;49.794;18.258;2023-02-16T16:02:25;-16013.81;;;2.86;86.64
65157;BME280;52745;49.794;18.258;2023-02-16T16:05:01;-16012.97;;;2.83;86.93
65157;BME280;52745;49.794;18.258;2023-02-16T16:07:33;-16012.72;;;2.82;87.09
65157;BME280;52745;49.794;18.258;2023-02-16T16:12:42;-16009.03;;;2.68;88.42
65157;BME280;52745;49.794;18.258;2023-02-16T16:15:16;-16006.16;;;2.57;88.82
65157;BME280;52745;49.794;18.258;2023-02-16T16:17:45;-16004.91;;;2.53;89.59